Time;durP1;ratioP1;P1;durP2;ratioP2;P2;SDS_P1;SDS_P2;PMS_P1;PMS_P2;Temp;Humidity;BMP_temperature;BMP_pressure;BME280_temperature;BME280_humidity;BME280_pressure;Samples;Min_cycle;Max_cycle;Signal;HPM_P1;HPM_P2
2021/04/15 00:00:17;;;;;;;2.95;2.75;;;;;;;;;;5137328;27;20034;-62
2021/04/15 00:02:42;;;;;;;3.38;3.08;;;;;;;;;;5155426;27;20030;-63
2021/04/15 00:05:09;;;;;;;3.10;2.80;;;;;;;;;;5156148;27;20041;-63
2021/04/15 00:07:35;;;;;;;2.85;2.65;;;;;;;;;;5137229;27;20374;-62
2021/04/15 00:10:00;;;;;;;3.22;3.03;;;;;;;;;;5155565;27;20022;-62
2021/04/15 00:12:26;;;;;;;3.05;2.80;;;;;;;;;;5155628;27;20022;-62
2021/04/15 00:14:51;;;;;;;3.45;2.75;;;;;;;;;;5155957;27;20471;-62
2021/04/15 00:17:17;;;;;;;3.03;2.63;;;;;;;;;;5155458;27;20023;-62
2021/04/15 00:19:43;;;;;;;2.97;2.67;;;;;;;;;;5155699;27;20019;-63
2021/04/15 00:22:10;;;;;;;2.90;2.70;;;;;;;;;;5137466;27;20488;-62
2021/04/15 00:24:35;;;;;;;3.85;2.60;;;;;;;;;;5155767;27;20026;-63
2021/04/15 00:27:01;;;;;;;2.90;2.65;;;;;;;;;;5155478;27;20030;-62
2021/04/15 00:29:26;;;;;;;2.90;2.67;;;;;;;;;;5155727;27;20019;-62
2021/04/15 00:31:52;;;;;;;3.00;2.70;;;;;;;;;;5155195;27;20477;-62
2021/04/15 00:34:17;;;;;;;2.60;2.40;;;;;;;;;;5155206;27;20014;-62
2021/04/15 00:36:46;;;;;;;4.10;2.50;;;;;;;;;;5155253;27;20030;-63
2021/04/15 00:39:11;;;;;;;2.28;2.17;;;;;;;;;;5155367;27;20411;-63
2021/04/15 00:41:37;;;;;;;2.58;2.10;;;;;;;;;;5155301;27;20034;-63
2021/04/15 00:44:03;;;;;;;2.15;1.98;;;;;;;;;;5155349;27;20465;-63
2021/04/15 00:46:41;;;;;;;2.53;2.10;;;;;;;;;;5155042;27;20026;-62
2021/04/15 00:49:07;;;;;;;2.03;1.92;;;;;;;;;;5154948;27;20113;-62
2021/04/15 00:51:35;;;;;;;2.30;2.10;;;;;;;;;;5136427;27;20007;-62
2021/04/15 00:54:20;;;;;;;2.70;2.15;;;;;;;;;;5154965;27;20063;-63
2021/04/15 00:56:45;;;;;;;2.97;1.98;;;;;;;;;;5154636;27;20396;-63
2021/04/15 00:59:11;;;;;;;2.03;1.92;;;;;;;;;;5155073;27;20114;-63
2021/04/15 01:01:36;;;;;;;2.58;2.40;;;;;;;;;;5136668;27;20374;-63
2021/04/15 01:04:02;;;;;;;1.98;1.88;;;;;;;;;;5158395;27;20018;-62
2021/04/15 01:06:27;;;;;;;2.15;2.00;;;;;;;;;;5159112;27;20031;-62
2021/04/15 01:08:53;;;;;;;1.98;1.85;;;;;;;;;;5159224;27;20017;-62
2021/04/15 01:11:38;;;;;;;2.40;2.20;;;;;;;;;;5159288;27;20026;-62
2021/04/15 01:14:23;;;;;;;2.17;1.70;;;;;;;;;;5141003;27;20031;-62
2021/04/15 01:16:55;;;;;;;1.85;1.73;;;;;;;;;;5159181;27;20027;-63
2021/04/15 01:19:39;;;;;;;2.20;2.00;;;;;;;;;;5140569;27;20026;-63
2021/04/15 01:22:13;;;;;;;2.28;2.00;;;;;;;;;;5158974;27;20054;-63
2021/04/15 01:24:46;;;;;;;2.10;2.00;;;;;;;;;;5159453;27;20485;-63
2021/04/15 01:27:14;;;;;;;2.63;1.80;;;;;;;;;;5158706;27;20023;-63
2021/04/15 01:29:40;;;;;;;2.15;1.95;;;;;;;;;;5158933;27;20010;-62
2021/04/15 01:32:23;;;;;;;2.05;1.95;;;;;;;;;;5140246;27;20034;-63
2021/04/15 01:34:58;;;;;;;1.77;1.67;;;;;;;;;;5158811;27;20015;-63
2021/04/15 01:37:28;;;;;;;2.58;2.22;;;;;;;;;;5158779;27;20485;-63
2021/04/15 01:39:56;;;;;;;2.20;1.90;;;;;;;;;;5140161;27;20400;-62
2021/04/15 01:42:51;;;;;;;2.25;2.10;;;;;;;;;;5140192;27;20027;-63
2021/04/15 01:45:17;;;;;;;2.00;1.90;;;;;;;;;;5126822;27;20163;-63
2021/04/15 01:47:48;;;;;;;2.03;1.92;;;;;;;;;;5158256;27;20449;-63
2021/04/15 01:50:16;;;;;;;2.20;2.05;;;;;;;;;;5158530;27;20019;-63
2021/04/15 01:52:43;;;;;;;2.38;2.17;;;;;;;;;;5157656;27;20030;-63
2021/04/15 01:55:13;;;;;;;2.13;1.92;;;;;;;;;;5158160;27;20027;-63
2021/04/15 01:57:48;;;;;;;2.95;2.75;;;;;;;;;;5157851;27;20057;-63
2021/04/15 02:00:14;;;;;;;2.40;2.20;;;;;;;;;;5158596;27;20030;-63
2021/04/15 02:02:43;;;;;;;2.38;2.17;;;;;;;;;;5158267;27;20105;-63
2021/04/15 02:05:14;;;;;;;2.85;2.65;;;;;;;;;;5158057;27;20530;-63
2021/04/15 02:07:46;;;;;;;2.15;2.05;;;;;;;;;;5139308;27;20050;-63
2021/04/15 02:10:13;;;;;;;2.72;2.17;;;;;;;;;;5157869;27;20019;-63
2021/04/15 02:12:40;;;;;;;2.90;2.70;;;;;;;;;;5157916;27;20026;-63
2021/04/15 02:15:17;;;;;;;2.30;2.20;;;;;;;;;;5138651;27;20030;-63
2021/04/15 02:17:43;;;;;;;2.22;2.13;;;;;;;;;;5157915;27;20026;-63
2021/04/15 02:20:12;;;;;;;2.47;2.28;;;;;;;;;;5157993;27;20438;-63
2021/04/15 02:22:40;;;;;;;3.05;2.40;;;;;;;;;;5157998;27;20034;-63
2021/04/15 02:25:15;;;;;;;2.35;2.00;;;;;;;;;;5157742;27;20018;-63
2021/04/15 02:27:43;;;;;;;2.13;2.00;;;;;;;;;;5157387;27;20030;-63
2021/04/15 02:30:41;;;;;;;2.30;2.10;;;;;;;;;;5157665;27;20030;-63
2021/04/15 02:33:11;;;;;;;2.53;2.33;;;;;;;;;;5100314;27;20062;-63
2021/04/15 02:36:09;;;;;;;2.20;2.08;;;;;;;;;;5139334;27;20088;-62
2021/04/15 02:38:37;;;;;;;2.08;1.85;;;;;;;;;;5083197;27;20464;-63
2021/04/15 02:41:04;;;;;;;2.08;1.98;;;;;;;;;;5157448;27;20054;-62
2021/04/15 02:43:45;;;;;;;2.00;1.90;;;;;;;;;;5157328;27;20469;-62
2021/04/15 02:46:13;;;;;;;2.35;2.15;;;;;;;;;;5157521;27;20038;-63
2021/04/15 02:48:40;;;;;;;2.00;1.90;;;;;;;;;;5157376;27;20026;-63
2021/04/15 02:51:07;;;;;;;3.92;2.10;;;;;;;;;;5138799;27;20026;-63
2021/04/15 02:53:42;;;;;;;2.20;2.00;;;;;;;;;;5157601;27;20018;-63
2021/04/15 02:56:11;;;;;;;2.33;2.20;;;;;;;;;;5157062;27;20034;-62
2021/04/15 02:58:47;;;;;;;2.30;2.10;;;;;;;;;;5135045;27;20482;-63
2021/04/15 03:01:16;;;;;;;1.55;1.45;;;;;;;;;;5135164;27;20053;-63
2021/04/15 03:03:42;;;;;;;1.98;1.88;;;;;;;;;;5136446;27;20019;-63
2021/04/15 03:06:14;;;;;;;3.03;1.98;;;;;;;;;;5135912;27;20028;-63
2021/04/15 03:08:40;;;;;;;1.98;1.85;;;;;;;;;;5136280;27;20064;-62
2021/04/15 03:11:26;;;;;;;1.80;1.70;;;;;;;;;;5134990;27;20102;-62
2021/04/15 03:13:54;;;;;;;1.40;1.30;;;;;;;;;;5128443;27;20478;-62
2021/04/15 03:16:20;;;;;;;1.77;1.67;;;;;;;;;;5136096;27;20018;-62
2021/04/15 03:18:52;;;;;;;1.90;1.80;;;;;;;;;;5136294;27;20035;-63
2021/04/15 03:21:21;;;;;;;1.63;1.50;;;;;;;;;;5134477;27;20023;-62
2021/04/15 03:23:50;;;;;;;1.85;1.75;;;;;;;;;;5136297;27;20365;-63
2021/04/15 03:26:34;;;;;;;1.52;1.42;;;;;;;;;;5134830;27;20466;-62
2021/04/15 03:29:03;;;;;;;1.88;1.77;;;;;;;;;;5134761;27;20023;-62
2021/04/15 03:31:29;;;;;;;2.08;1.50;;;;;;;;;;5134666;27;20466;-62
2021/04/15 03:34:01;;;;;;;1.98;1.77;;;;;;;;;;5135791;27;20027;-62
2021/04/15 03:36:28;;;;;;;1.80;1.70;;;;;;;;;;5136314;27;20035;-62
2021/04/15 03:39:00;;;;;;;2.25;2.05;;;;;;;;;;5135674;27;20019;-62
2021/04/15 03:41:35;;;;;;;1.90;1.80;;;;;;;;;;5135555;27;20042;-62
2021/04/15 03:44:03;;;;;;;1.83;1.73;;;;;;;;;;5135975;27;20065;-62
2021/04/15 03:46:35;;;;;;;1.85;1.75;;;;;;;;;;5134083;27;20079;-62
2021/04/15 03:49:06;;;;;;;3.05;1.88;;;;;;;;;;5135541;27;20027;-68
2021/04/15 03:51:38;;;;;;;1.85;1.75;;;;;;;;;;5135450;27;20029;-69
2021/04/15 03:54:05;;;;;;;1.75;1.45;;;;;;;;;;5135531;27;20027;-67
2021/04/15 03:56:35;;;;;;;1.98;1.40;;;;;;;;;;5133954;27;20027;-67
2021/04/15 03:59:21;;;;;;;1.85;1.75;;;;;;;;;;5113601;28;20058;-68
2021/04/15 04:01:49;;;;;;;1.85;1.70;;;;;;;;;;5114271;28;20043;-68
2021/04/15 04:04:20;;;;;;;1.70;1.60;;;;;;;;;;5114215;28;20075;-69
2021/04/15 04:06:49;;;;;;;1.85;1.75;;;;;;;;;;5106830;28;20479;-68
2021/04/15 04:09:17;;;;;;;1.77;1.67;;;;;;;;;;5101629;28;20019;-68
2021/04/15 04:11:44;;;;;;;1.85;1.75;;;;;;;;;;5113029;27;20110;-68
2021/04/15 04:14:15;;;;;;;1.90;1.80;;;;;;;;;;5114131;28;20027;-69
2021/04/15 04:16:44;;;;;;;2.22;1.90;;;;;;;;;;5113920;28;20023;-69
2021/04/15 04:19:21;;;;;;;1.60;1.50;;;;;;;;;;5110923;28;20046;-69
2021/04/15 04:21:49;;;;;;;1.92;1.73;;;;;;;;;;5091830;28;20118;-69
2021/04/15 04:24:21;;;;;;;2.10;2.00;;;;;;;;;;5092558;28;20023;-68
2021/04/15 04:26:51;;;;;;;2.47;1.75;;;;;;;;;;5091989;28;20126;-69
2021/04/15 04:29:17;;;;;;;2.05;1.70;;;;;;;;;;5093886;28;20032;-68
2021/04/15 04:31:44;;;;;;;2.50;1.83;;;;;;;;;;5093685;28;20031;-68
2021/04/15 04:34:11;;;;;;;1.70;1.60;;;;;;;;;;5093643;28;20148;-70
2021/04/15 04:36:38;;;;;;;1.75;1.65;;;;;;;;;;5092397;28;20039;-70
2021/04/15 04:39:04;;;;;;;2.20;1.80;;;;;;;;;;5093331;28;20096;-70
2021/04/15 04:41:48;;;;;;;2.85;2.10;;;;;;;;;;5093923;28;20031;-70
2021/04/15 04:44:17;;;;;;;1.88;1.75;;;;;;;;;;5093484;28;20032;-70
2021/04/15 04:46:51;;;;;;;2.17;1.92;;;;;;;;;;5093748;28;20498;-70
2021/04/15 04:49:22;;;;;;;1.80;1.70;;;;;;;;;;5091674;28;20122;-70
2021/04/15 04:51:53;;;;;;;2.08;1.95;;;;;;;;;;5092472;28;20467;-68
2021/04/15 04:54:19;;;;;;;1.90;1.80;;;;;;;;;;5092501;28;20059;-69
2021/04/15 04:56:48;;;;;;;1.70;1.50;;;;;;;;;;5095380;28;20020;-68
2021/04/15 04:59:16;;;;;;;1.90;1.70;;;;;;;;;;5133408;28;20043;-68
2021/04/15 05:01:42;;;;;;;1.80;1.70;;;;;;;;;;5133424;28;20114;-67
2021/04/15 05:04:08;;;;;;;2.45;1.80;;;;;;;;;;5133811;28;20114;-67
2021/04/15 05:06:41;;;;;;;2.25;1.58;;;;;;;;;;5134015;28;20066;-68
2021/04/15 05:09:25;;;;;;;2.20;2.00;;;;;;;;;;5134120;28;20592;-68
2021/04/15 05:11:52;;;;;;;2.15;1.95;;;;;;;;;;5134328;28;20032;-68
2021/04/15 05:14:19;;;;;;;1.80;1.70;;;;;;;;;;5134360;28;20106;-67
2021/04/15 05:16:48;;;;;;;1.92;1.80;;;;;;;;;;5134213;28;20474;-67
2021/04/15 05:19:13;;;;;;;1.70;1.60;;;;;;;;;;5133995;28;20011;-68
2021/04/15 05:21:40;;;;;;;2.10;2.00;;;;;;;;;;5133864;28;20035;-68
2021/04/15 05:24:12;;;;;;;2.70;1.85;;;;;;;;;;5115929;28;20026;-69
2021/04/15 05:26:39;;;;;;;2.40;2.20;;;;;;;;;;5134108;28;20027;-69
2021/04/15 05:29:06;;;;;;;2.35;2.10;;;;;;;;;;5134365;28;20023;-69
2021/04/15 05:31:38;;;;;;;2.63;2.25;;;;;;;;;;5134233;28;20031;-69
2021/04/15 05:34:07;;;;;;;3.38;2.30;;;;;;;;;;5133784;28;20034;-68
2021/04/15 05:36:36;;;;;;;2.60;2.40;;;;;;;;;;5115319;28;20023;-68
2021/04/15 05:39:02;;;;;;;2.50;2.30;;;;;;;;;;5133617;28;20019;-67
2021/04/15 05:41:28;;;;;;;2.17;2.03;;;;;;;;;;5133644;28;20015;-67
2021/04/15 05:43:57;;;;;;;2.65;2.35;;;;;;;;;;5133626;28;20015;-67
2021/04/15 05:46:24;;;;;;;3.40;2.38;;;;;;;;;;5133468;28;20015;-67
2021/04/15 05:48:53;;;;;;;2.20;2.00;;;;;;;;;;5147658;27;20019;-67
2021/04/15 05:51:21;;;;;;;2.33;2.15;;;;;;;;;;5157956;27;20533;-67
2021/04/15 05:53:49;;;;;;;2.63;2.17;;;;;;;;;;5158003;27;20041;-69
2021/04/15 05:56:18;;;;;;;2.65;2.15;;;;;;;;;;5158137;27;20105;-68
2021/04/15 05:58:51;;;;;;;2.90;2.33;;;;;;;;;;5158222;27;20085;-68
2021/04/15 06:01:40;;;;;;;2.20;2.10;;;;;;;;;;5158268;27;20026;-62
2021/04/15 06:04:28;;;;;;;2.30;2.10;;;;;;;;;;5128775;27;20138;-61
2021/04/15 06:06:54;;;;;;;2.33;2.20;;;;;;;;;;5158233;27;20076;-62
2021/04/15 06:09:20;;;;;;;2.38;2.10;;;;;;;;;;5157823;27;20014;-61
2021/04/15 06:11:52;;;;;;;2.63;2.42;;;;;;;;;;5157739;27;20031;-62
2021/04/15 06:14:33;;;;;;;3.28;2.33;;;;;;;;;;5157672;27;20022;-61
2021/04/15 06:17:19;;;;;;;2.47;2.28;;;;;;;;;;5157778;27;20031;-62
2021/04/15 06:19:47;;;;;;;2.90;2.58;;;;;;;;;;5156989;27;20466;-69
2021/04/15 06:22:15;;;;;;;2.83;2.53;;;;;;;;;;5157707;27;20079;-69
2021/04/15 06:24:43;;;;;;;2.75;2.55;;;;;;;;;;5157906;27;20063;-69
2021/04/15 06:27:10;;;;;;;3.20;2.40;;;;;;;;;;5157502;27;20482;-69
2021/04/15 06:29:41;;;;;;;2.58;2.38;;;;;;;;;;5157793;27;20019;-69
2021/04/15 06:32:08;;;;;;;2.97;2.58;;;;;;;;;;5157484;27;20023;-68
2021/04/15 06:34:35;;;;;;;2.40;2.20;;;;;;;;;;5157548;27;20101;-69
2021/04/15 06:37:10;;;;;;;2.90;2.38;;;;;;;;;;5157441;27;20114;-69
2021/04/15 06:39:38;;;;;;;2.63;2.42;;;;;;;;;;5138659;27;20031;-62
2021/04/15 06:42:21;;;;;;;2.70;2.50;;;;;;;;;;5157198;27;20465;-62
2021/04/15 06:44:49;;;;;;;3.17;2.40;;;;;;;;;;5157433;27;20105;-62
2021/04/15 06:47:50;;;;;;;2.50;2.30;;;;;;;;;;5157093;27;20010;-62
2021/04/15 06:50:16;;;;;;;2.50;2.30;;;;;;;;;;5053209;28;20108;-62
2021/04/15 06:53:00;;;;;;;2.53;2.22;;;;;;;;;;5135463;27;20059;-61
2021/04/15 06:55:31;;;;;;;3.58;2.55;;;;;;;;;;5156933;27;20109;-61
2021/04/15 06:58:00;;;;;;;3.47;2.90;;;;;;;;;;5156555;27;20486;-62
2021/04/15 07:00:45;;;;;;;4.68;3.85;;;;;;;;;;5156937;27;20027;-62
2021/04/15 07:03:14;;;;;;;3.25;2.97;;;;;;;;;;5156867;27;20034;-69
2021/04/15 07:05:56;;;;;;;3.33;3.03;;;;;;;;;;5138811;27;20044;-69
2021/04/15 07:08:27;;;;;;;4.43;4.03;;;;;;;;;;5156822;27;20034;-69
2021/04/15 07:11:05;;;;;;;5.47;5.00;;;;;;;;;;5138108;27;20465;-69
2021/04/15 07:13:31;;;;;;;4.28;3.97;;;;;;;;;;5156634;27;20118;-69
2021/04/15 07:16:14;;;;;;;4.45;4.05;;;;;;;;;;5156736;27;20062;-69
2021/04/15 07:18:52;;;;;;;3.80;3.50;;;;;;;;;;5156751;27;20114;-69
2021/04/15 07:21:32;;;;;;;3.15;2.90;;;;;;;;;;5137987;27;20097;-68
2021/04/15 07:24:09;;;;;;;3.80;3.45;;;;;;;;;;5156864;27;20064;-68
2021/04/15 07:26:55;;;;;;;3.20;2.90;;;;;;;;;;5156691;27;20430;-62
2021/04/15 07:29:32;;;;;;;2.60;2.40;;;;;;;;;;5156790;27;20019;-62
2021/04/15 07:32:01;;;;;;;2.45;2.28;;;;;;;;;;5156394;27;20040;-62
2021/04/15 07:34:45;;;;;;;3.53;2.75;;;;;;;;;;5156697;27;20010;-62
2021/04/15 07:37:20;;;;;;;3.03;2.72;;;;;;;;;;5156438;27;20081;-62
2021/04/15 07:39:47;;;;;;;3.10;2.80;;;;;;;;;;5137530;27;20035;-62
2021/04/15 07:42:31;;;;;;;3.30;2.50;;;;;;;;;;5138004;27;20331;-61
2021/04/15 07:45:35;;;;;;;4.22;3.15;;;;;;;;;;5156264;27;20031;-62
2021/04/15 07:48:03;;;;;;;2.85;2.60;;;;;;;;;;5050938;28;20142;-61
2021/04/15 07:50:47;;;;;;;2.88;2.67;;;;;;;;;;5057127;28;20036;-68
2021/04/15 07:53:22;;;;;;;2.67;2.47;;;;;;;;;;5088896;27;20565;-68
2021/04/15 07:55:54;;;;;;;2.85;2.65;;;;;;;;;;5135744;27;20034;-68
2021/04/15 07:58:22;;;;;;;2.75;2.30;;;;;;;;;;5148582;27;20161;-68
2021/04/15 08:01:06;;;;;;;2.95;2.50;;;;;;;;;;5154109;27;20038;-68
2021/04/15 08:03:50;;;;;;;15.52;11.02;;;;;;;;;;5151354;27;20210;-68
2021/04/15 08:06:32;;;;;;;2.88;2.58;;;;;;;;;;5137550;27;20103;-69
2021/04/15 08:09:00;;;;;;;3.08;2.83;;;;;;;;;;5137030;27;20037;-68
2021/04/15 08:11:38;;;;;;;3.38;2.80;;;;;;;;;;5155585;27;20019;-68
2021/04/15 08:14:27;;;;;;;3.38;3.00;;;;;;;;;;5137648;27;20470;-68
2021/04/15 08:16:56;;;;;;;3.88;2.92;;;;;;;;;;5137211;27;20069;-68
2021/04/15 08:19:40;;;;;;;3.55;3.25;;;;;;;;;;5155494;27;20019;-68
2021/04/15 08:22:16;;;;;;;4.35;2.95;;;;;;;;;;5155547;27;20033;-68
2021/04/15 08:24:47;;;;;;;3.00;2.80;;;;;;;;;;5155639;27;20110;-69
2021/04/15 08:27:19;;;;;;;3.13;2.47;;;;;;;;;;5136615;27;20087;-68
2021/04/15 08:30:08;;;;;;;3.30;2.85;;;;;;;;;;5144628;27;20091;-62
2021/04/15 08:32:33;;;;;;;4.82;4.30;;;;;;;;;;5132557;27;20038;-61
2021/04/15 08:35:17;;;;;;;5.32;4.18;;;;;;;;;;5154598;27;20014;-61
2021/04/15 08:37:48;;;;;;;4.00;3.10;;;;;;;;;;5155155;27;20167;-62
2021/04/15 08:40:19;;;;;;;2.90;2.70;;;;;;;;;;5155322;27;20389;-61
2021/04/15 08:43:05;;;;;;;3.05;2.75;;;;;;;;;;5155468;27;20183;-61
2021/04/15 08:45:31;;;;;;;2.70;2.50;;;;;;;;;;5131289;27;20074;-61
2021/04/15 08:48:09;;;;;;;2.90;2.70;;;;;;;;;;5155056;27;20134;-62
2021/04/15 08:50:35;;;;;;;3.25;2.78;;;;;;;;;;5155260;27;20023;-61
2021/04/15 08:53:15;;;;;;;3.33;2.88;;;;;;;;;;5154965;27;20019;-62
2021/04/15 08:56:01;;;;;;;2.50;2.30;;;;;;;;;;5136705;27;20027;-61
2021/04/15 08:58:42;;;;;;;2.30;2.10;;;;;;;;;;5136513;27;20053;-61
2021/04/15 09:01:24;;;;;;;2.47;2.38;;;;;;;;;;5155234;27;20082;-62
2021/04/15 09:03:50;;;;;;;2.95;2.67;;;;;;;;;;5154820;27;20477;-61
2021/04/15 09:06:19;;;;;;;2.90;2.63;;;;;;;;;;5145817;27;20045;-60
2021/04/15 09:08:51;;;;;;;3.70;2.70;;;;;;;;;;5154857;27;20062;-61
2021/04/15 09:11:35;;;;;;;2.75;2.55;;;;;;;;;;5154990;27;20529;-61
2021/04/15 09:14:06;;;;;;;2.65;2.45;;;;;;;;;;5154969;27;20113;-61
2021/04/15 09:16:44;;;;;;;2.53;2.33;;;;;;;;;;5154801;27;20022;-62
2021/04/15 09:19:17;;;;;;;2.90;2.70;;;;;;;;;;5155264;27;20418;-62
2021/04/15 09:21:51;;;;;;;2.58;2.38;;;;;;;;;;5136361;27;20027;-61
2021/04/15 09:24:40;;;;;;;2.28;2.08;;;;;;;;;;5138381;27;20038;-62
2021/04/15 09:27:21;;;;;;;2.50;2.30;;;;;;;;;;5158792;27;20121;-62
2021/04/15 09:29:54;;;;;;;2.40;2.20;;;;;;;;;;5159110;27;20030;-61
2021/04/15 09:32:35;;;;;;;1.80;1.70;;;;;;;;;;5137549;27;20422;-61
2021/04/15 09:35:04;;;;;;;2.67;2.10;;;;;;;;;;5134437;27;20026;-61
2021/04/15 09:37:43;;;;;;;2.10;2.00;;;;;;;;;;5139821;27;20010;-61
2021/04/15 09:40:27;;;;;;;2.50;2.30;;;;;;;;;;5136786;27;20033;-62
2021/04/15 09:42:56;;;;;;;2.47;2.30;;;;;;;;;;5136700;27;20438;-62
2021/04/15 09:45:40;;;;;;;2.55;1.95;;;;;;;;;;5156837;27;20018;-68
2021/04/15 09:48:35;;;;;;;2.60;2.40;;;;;;;;;;5154086;27;20487;-68
2021/04/15 09:51:10;;;;;;;2.75;2.50;;;;;;;;;;5156242;27;20088;-68
2021/04/15 09:53:47;;;;;;;3.13;2.88;;;;;;;;;;5157064;27;20122;-68
2021/04/15 09:56:24;;;;;;;2.67;2.47;;;;;;;;;;5156024;27;20023;-67
2021/04/15 09:58:59;;;;;;;3.28;2.72;;;;;;;;;;5158097;27;20119;-68
2021/04/15 10:01:28;;;;;;;2.90;2.60;;;;;;;;;;5139666;27;20034;-68
2021/04/15 10:04:09;;;;;;;2.50;2.30;;;;;;;;;;5158290;27;20106;-68
2021/04/15 10:06:43;;;;;;;2.75;2.20;;;;;;;;;;5158441;27;20083;-68
2021/04/15 10:09:19;;;;;;;2.45;2.25;;;;;;;;;;5158082;27;20110;-68
2021/04/15 10:12:03;;;;;;;2.97;2.65;;;;;;;;;;5158427;27;20037;-68
2021/04/15 10:14:29;;;;;;;4.03;2.80;;;;;;;;;;5156445;27;20143;-68
2021/04/15 10:16:57;;;;;;;3.40;3.10;;;;;;;;;;5146764;27;20553;-68
2021/04/15 10:19:41;;;;;;;3.17;2.88;;;;;;;;;;5153694;27;20082;-68
2021/04/15 10:22:25;;;;;;;3.30;3.00;;;;;;;;;;5157731;27;20505;-62
2021/04/15 10:24:51;;;;;;;3.35;2.78;;;;;;;;;;5157720;27;20077;-62
2021/04/15 10:27:17;;;;;;;3.72;2.67;;;;;;;;;;5139306;27;20109;-62
2021/04/15 10:29:55;;;;;;;3.00;2.72;;;;;;;;;;5157924;27;20403;-62
2021/04/15 10:32:40;;;;;;;3.30;3.00;;;;;;;;;;5139376;27;20033;-62
2021/04/15 10:35:11;;;;;;;2.67;2.47;;;;;;;;;;5149438;27;20053;-61
2021/04/15 10:37:46;;;;;;;4.00;2.85;;;;;;;;;;5154695;27;20038;-62
2021/04/15 10:40:30;;;;;;;3.17;2.75;;;;;;;;;;5157727;27;20500;-62
2021/04/15 10:43:15;;;;;;;2.90;2.42;;;;;;;;;;5138866;27;20385;-62
2021/04/15 10:45:49;;;;;;;2.70;2.50;;;;;;;;;;5157749;27;20027;-61
2021/04/15 10:48:29;;;;;;;3.47;2.78;;;;;;;;;;5148856;27;20054;-62
2021/04/15 10:50:57;;;;;;;3.38;3.08;;;;;;;;;;5155042;27;20477;-62
2021/04/15 10:53:42;;;;;;;3.20;3.00;;;;;;;;;;5138718;27;20015;-62
2021/04/15 10:56:08;;;;;;;2.88;2.67;;;;;;;;;;5156713;27;20063;-61
2021/04/15 10:58:45;;;;;;;3.42;3.00;;;;;;;;;;5156828;27;20439;-61
2021/04/15 11:01:30;;;;;;;3.45;2.70;;;;;;;;;;5156872;27;20550;-61
2021/04/15 11:03:57;;;;;;;4.05;3.17;;;;;;;;;;5157042;27;20363;-62
2021/04/15 11:06:32;;;;;;;2.40;2.17;;;;;;;;;;5156558;27;20029;-63
2021/04/15 11:09:16;;;;;;;2.42;2.22;;;;;;;;;;5156532;27;20019;-63
2021/04/15 11:12:01;;;;;;;3.83;2.65;;;;;;;;;;5138330;27;20030;-61
2021/04/15 11:14:28;;;;;;;2.35;2.15;;;;;;;;;;5138237;27;20369;-63
2021/04/15 11:16:54;;;;;;;2.50;2.20;;;;;;;;;;5156270;27;20007;-63
2021/04/15 11:19:23;;;;;;;2.60;2.40;;;;;;;;;;5137914;27;20033;-63
2021/04/15 11:21:51;;;;;;;3.70;2.80;;;;;;;;;;5156414;27;20529;-63
2021/04/15 11:24:19;;;;;;;3.08;2.60;;;;;;;;;;5138632;27;20045;-63
2021/04/15 11:26:46;;;;;;;4.45;2.92;;;;;;;;;;5138030;27;20484;-63
2021/04/15 11:29:26;;;;;;;2.85;2.60;;;;;;;;;;5156626;27;20026;-63
2021/04/15 11:31:52;;;;;;;2.42;2.22;;;;;;;;;;5155887;27;20025;-61
2021/04/15 11:34:23;;;;;;;5.03;2.90;;;;;;;;;;5155174;27;20034;-63
2021/04/15 11:37:08;;;;;;;3.55;2.40;;;;;;;;;;5156154;27;20034;-63
2021/04/15 11:39:36;;;;;;;3.50;2.97;;;;;;;;;;5137527;27;20373;-63
2021/04/15 11:42:06;;;;;;;3.08;2.72;;;;;;;;;;5156236;27;20018;-63
2021/04/15 11:44:34;;;;;;;3.92;3.20;;;;;;;;;;5137676;27;20034;-63
2021/04/15 11:47:26;;;;;;;3.20;2.80;;;;;;;;;;5154976;27;20031;-63
2021/04/15 11:49:53;;;;;;;5.30;3.30;;;;;;;;;;5133493;27;20084;-63
2021/04/15 11:52:27;;;;;;;2.92;2.58;;;;;;;;;;5155748;27;20014;-63
2021/04/15 11:54:53;;;;;;;3.25;2.95;;;;;;;;;;5137280;27;20027;-63
2021/04/15 11:57:18;;;;;;;3.65;3.10;;;;;;;;;;5155529;27;20510;-61
2021/04/15 11:59:44;;;;;;;3.63;3.05;;;;;;;;;;5155509;27;20034;-63
2021/04/15 12:02:14;;;;;;;3.85;3.17;;;;;;;;;;5155825;27;20021;-62
2021/04/15 12:04:40;;;;;;;2.95;2.70;;;;;;;;;;5137007;27;20062;-63
2021/04/15 12:07:12;;;;;;;4.22;3.20;;;;;;;;;;5155700;27;20050;-65
2021/04/15 12:09:37;;;;;;;2.67;2.47;;;;;;;;;;5155387;27;20030;-66
2021/04/15 12:12:16;;;;;;;3.63;3.17;;;;;;;;;;5155301;27;20019;-66
2021/04/15 12:14:41;;;;;;;4.40;2.60;;;;;;;;;;5155532;27;20014;-64
2021/04/15 12:17:10;;;;;;;2.75;2.35;;;;;;;;;;5155437;27;20117;-63
2021/04/15 12:19:51;;;;;;;3.08;2.85;;;;;;;;;;5137044;27;20035;-61
2021/04/15 12:22:16;;;;;;;4.05;3.08;;;;;;;;;;5136647;27;20117;-61
2021/04/15 12:24:49;;;;;;;2.45;2.08;;;;;;;;;;5154674;27;20098;-64
2021/04/15 12:27:22;;;;;;;2.80;2.45;;;;;;;;;;5154974;27;20392;-61
2021/04/15 12:29:47;;;;;;;3.05;2.75;;;;;;;;;;5155401;27;20029;-64
2021/04/15 12:32:33;;;;;;;3.15;2.80;;;;;;;;;;5155436;27;20011;-64
2021/04/15 12:34:58;;;;;;;3.63;2.53;;;;;;;;;;5136579;27;20062;-64
2021/04/15 12:37:39;;;;;;;3.03;2.83;;;;;;;;;;5155433;27;20425;-64
2021/04/15 12:40:05;;;;;;;2.92;2.60;;;;;;;;;;5155301;27;20023;-64
2021/04/15 12:42:36;;;;;;;2.72;2.30;;;;;;;;;;5136578;27;20026;-61
2021/04/15 12:45:03;;;;;;;3.28;2.75;;;;;;;;;;5136567;27;20084;-61
2021/04/15 12:47:31;;;;;;;4.53;2.88;;;;;;;;;;5155056;27;20029;-61
2021/04/15 12:49:59;;;;;;;3.58;2.58;;;;;;;;;;5155044;27;20027;-61
2021/04/15 12:52:27;;;;;;;2.88;2.03;;;;;;;;;;5155051;27;20497;-61
2021/04/15 12:54:53;;;;;;;2.85;2.65;;;;;;;;;;5154665;27;20528;-61
2021/04/15 12:57:19;;;;;;;3.17;2.90;;;;;;;;;;5154461;27;20134;-64
2021/04/15 12:59:47;;;;;;;4.45;3.20;;;;;;;;;;5154594;27;20031;-65
2021/04/15 13:02:33;;;;;;;2.97;2.58;;;;;;;;;;5154669;27;20023;-66
2021/04/15 13:05:08;;;;;;;4.32;3.30;;;;;;;;;;5154127;27;20083;-66
2021/04/15 13:07:38;;;;;;;4.10;3.03;;;;;;;;;;5154987;27;20159;-66
2021/04/15 13:10:12;;;;;;;3.75;3.38;;;;;;;;;;5154799;27;20015;-66
2021/04/15 13:12:48;;;;;;;3.53;3.17;;;;;;;;;;5155044;27;20034;-67
2021/04/15 13:15:22;;;;;;;4.40;3.28;;;;;;;;;;5155194;27;20378;-71
2021/04/15 13:17:49;;;;;;;3.70;2.78;;;;;;;;;;5155133;27;20061;-66
2021/04/15 13:20:33;;;;;;;3.00;2.53;;;;;;;;;;5154419;27;20068;-66
2021/04/15 13:23:08;;;;;;;4.15;3.28;;;;;;;;;;5135904;27;20027;-66
2021/04/15 13:25:57;;;;;;;3.90;2.88;;;;;;;;;;5154854;27;20030;-66
2021/04/15 13:28:38;;;;;;;5.05;3.33;;;;;;;;;;5154274;27;20458;-66
2021/04/15 13:31:06;;;;;;;3.33;2.75;;;;;;;;;;5154658;27;20027;-66
2021/04/15 13:33:31;;;;;;;3.92;2.70;;;;;;;;;;5154555;27;20015;-66
2021/04/15 13:36:03;;;;;;;4.07;2.88;;;;;;;;;;5154713;27;20513;-66
2021/04/15 13:41:04;;;;;;;5.13;4.38;;;;;;;;;;5154453;27;20022;-66
2021/04/15 13:43:35;;;;;;;5.32;3.70;;;;;;;;;;5154650;27;20498;-66
2021/04/15 13:46:25;;;;;;;3.45;3.05;;;;;;;;;;5154719;27;20027;-60
2021/04/15 13:48:57;;;;;;;3.38;2.67;;;;;;;;;;5135504;27;20023;-60
2021/04/15 13:51:24;;;;;;;4.13;3.17;;;;;;;;;;5135974;27;20400;-60
2021/04/15 13:53:50;;;;;;;5.03;3.85;;;;;;;;;;5154308;27;20067;-60
2021/04/15 13:56:33;;;;;;;9.25;5.20;;;;;;;;;;5135831;27;20114;-60
2021/04/15 13:58:59;;;;;;;3.78;3.10;;;;;;;;;;5135799;27;20474;-60
2021/04/15 14:01:29;;;;;;;4.00;3.17;;;;;;;;;;5154216;27;20023;-60
2021/04/15 14:03:55;;;;;;;8.07;4.27;;;;;;;;;;5154393;27;20022;-60
2021/04/15 14:06:22;;;;;;;5.03;4.25;;;;;;;;;;5136173;27;20010;-60
2021/04/15 14:08:49;;;;;;;3.47;2.85;;;;;;;;;;5128991;27;20037;-60
2021/04/15 14:11:24;;;;;;;2.83;2.55;;;;;;;;;;5153177;27;20022;-60
2021/04/15 14:13:51;;;;;;;5.20;3.75;;;;;;;;;;5155029;27;20023;-60
2021/04/15 14:16:16;;;;;;;5.55;3.55;;;;;;;;;;5154715;27;20462;-60
2021/04/15 14:18:44;;;;;;;8.93;5.30;;;;;;;;;;5154547;27;20141;-60
2021/04/15 14:21:09;;;;;;;8.55;5.32;;;;;;;;;;5155264;27;20026;-65
2021/04/15 14:23:46;;;;;;;7.85;4.18;;;;;;;;;;5155758;27;20027;-65
2021/04/15 14:26:16;;;;;;;7.60;4.60;;;;;;;;;;5137655;27;20035;-65
2021/04/15 14:28:41;;;;;;;6.07;4.63;;;;;;;;;;5155649;27;20030;-66
2021/04/15 14:31:16;;;;;;;8.60;5.13;;;;;;;;;;5156259;27;20014;-65
2021/04/15 14:33:43;;;;;;;8.40;4.88;;;;;;;;;;5155926;27;20493;-65
2021/04/15 14:36:21;;;;;;;6.82;4.05;;;;;;;;;;5155760;27;20014;-65
2021/04/15 14:38:47;;;;;;;9.27;4.78;;;;;;;;;;5137324;27;20045;-65
2021/04/15 14:41:12;;;;;;;6.20;4.32;;;;;;;;;;5137342;27;20031;-65
2021/04/15 14:43:40;;;;;;;6.95;4.20;;;;;;;;;;5155169;27;20642;-68
2021/04/15 14:46:31;;;;;;;6.72;4.07;;;;;;;;;;5137520;27;20109;-66
2021/04/15 14:49:11;;;;;;;7.22;4.93;;;;;;;;;;5143732;27;20129;-65
2021/04/15 14:51:36;;;;;;;5.57;4.15;;;;;;;;;;5153724;27;20026;-65
2021/04/15 14:54:20;;;;;;;7.43;4.55;;;;;;;;;;5143710;27;20049;-66
2021/04/15 14:56:47;;;;;;;5.47;4.53;;;;;;;;;;5099136;27;20086;-61
2021/04/15 14:59:43;;;;;;;4.90;3.15;;;;;;;;;;5148273;27;20034;-61
2021/04/15 15:02:20;;;;;;;5.22;3.63;;;;;;;;;;5067571;27;20052;-61
2021/04/15 15:05:06;;;;;;;3.70;3.17;;;;;;;;;;5152702;27;20113;-60
2021/04/15 15:07:33;;;;;;;4.78;4.07;;;;;;;;;;5134393;27;20439;-60
2021/04/15 15:10:01;;;;;;;5.05;3.70;;;;;;;;;;5150031;27;20026;-60
2021/04/15 15:12:28;;;;;;;4.35;3.17;;;;;;;;;;5111605;27;20482;-62
2021/04/15 15:14:54;;;;;;;4.28;3.58;;;;;;;;;;5137534;27;20477;-62
2021/04/15 15:17:24;;;;;;;6.55;4.15;;;;;;;;;;5153483;27;20441;-62